Time;durP1;ratioP1;P1;durP2;ratioP2;P2;SDS_P1;SDS_P2;PMS_P1;PMS_P2;Temp;Humidity;BMP_temperature;BMP_pressure;BME280_temperature;BME280_humidity;BME280_pressure;Samples;Min_cycle;Max_cycle;Signal;HPM_P1;HPM_P2
2023/07/31 00:00:14;;;;;;;;;;;16.20;99.90;;;;;;5053545;28;20115;-64
2023/07/31 00:02:40;;;;;;;0.17;0.17;;;16.70;99.90;;;;;;5052756;28;19944;-63
2023/07/31 00:05:07;;;;;;;0.20;0.20;;;16.60;99.90;;;;;;5052958;28;20412;-65
2023/07/31 00:07:33;;;;;;;0.10;0.10;;;16.80;99.90;;;;;;5052737;28;20127;-65
2023/07/31 00:09:59;;;;;;;0.10;0.10;;;16.60;99.90;;;;;;5052783;28;20141;-63
2023/07/31 00:12:24;;;;;;;;;;;16.50;99.90;;;;;;5053160;28;20084;-63
2023/07/31 00:14:50;;;;;;;0.20;0.20;;;16.60;99.90;;;;;;5053095;28;19967;-63
2023/07/31 00:17:16;;;;;;;;;;;16.80;99.90;;;;;;5053285;28;20053;-63
2023/07/31 00:19:42;;;;;;;0.10;0.10;;;16.70;99.90;;;;;;5052739;28;19925;-63
2023/07/31 00:22:07;;;;;;;;;;;16.30;99.90;;;;;;5052805;28;20139;-64
2023/07/31 00:24:33;;;;;;;0.52;0.35;;;16.40;99.90;;;;;;5052177;28;19942;-63
2023/07/31 00:26:58;;;;;;;;;;;16.90;99.90;;;;;;5052700;28;20045;-63
2023/07/31 00:29:24;;;;;;;0.10;0.10;;;16.30;99.90;;;;;;5052589;28;19928;-63
2023/07/31 00:31:50;;;;;;;;;;;16.70;99.90;;;;;;5052999;28;20485;-64
2023/07/31 00:34:15;;;;;;;1.02;0.30;;;16.60;99.90;;;;;;5052434;28;19935;-64
2023/07/31 00:36:41;;;;;;;;;;;16.50;99.90;;;;;;5052983;28;20048;-63
2023/07/31 00:39:07;;;;;;;0.10;0.10;;;16.40;99.90;;;;;;5052724;28;19931;-64
2023/07/31 00:41:32;;;;;;;;;;;16.40;99.90;;;;;;5053020;28;20048;-63
2023/07/31 00:43:58;;;;;;;0.13;0.13;;;16.40;99.90;;;;;;5052675;28;19921;-63
2023/07/31 00:46:23;;;;;;;;;;;15.90;99.90;;;;;;5052915;28;20186;-63
2023/07/31 00:48:49;;;;;;;0.10;0.10;;;16.20;99.90;;;;;;5052469;28;19932;-63
2023/07/31 00:51:15;;;;;;;;;;;16.40;99.90;;;;;;5052881;28;20133;-63
2023/07/31 00:53:42;;;;;;;0.10;0.10;;;16.10;99.90;;;;;;5052421;28;20472;-63
2023/07/31 00:56:08;;;;;;;0.20;0.20;;;16.50;99.90;;;;;;5052369;28;20476;-63
2023/07/31 00:58:34;;;;;;;0.77;0.70;;;16.80;99.90;;;;;;5052350;28;20405;-64
2023/07/31 01:01:00;;;;;;;0.35;0.32;;;16.10;99.90;;;;;;5051372;28;20051;-63
2023/07/31 01:03:25;;;;;;;;;;;16.20;99.90;;;;;;5052285;28;20099;-63
2023/07/31 01:06:19;;;;;;;0.52;0.52;;;16.70;99.90;;;;;;5052322;28;19920;-63
2023/07/31 01:09:11;;;;;;;0.10;0.10;;;16.60;99.90;;;;;;5052197;28;20060;-62
2023/07/31 01:11:48;;;;;;;0.65;0.65;;;16.10;99.90;;;;;;5051913;28;20538;-63
2023/07/31 01:14:14;;;;;;;5.18;0.30;;;17.30;99.90;;;;;;5052165;28;20045;-61
2023/07/31 01:16:39;;;;;;;0.17;0.17;;;17.00;99.90;;;;;;5051914;28;20227;-62
2023/07/31 01:19:08;;;;;;;0.30;0.30;;;16.50;99.90;;;;;;5052009;28;20048;-62
2023/07/31 01:21:43;;;;;;;0.10;0.10;;;16.50;99.90;;;;;;5051892;28;20044;-62
2023/07/31 01:24:46;;;;;;;0.30;0.30;;;16.70;99.90;;;;;;5050944;28;20136;-62
2023/07/31 01:27:21;;;;;;;0.20;0.20;;;16.40;99.90;;;;;;5051881;28;20536;-62
2023/07/31 01:30:00;;;;;;;1.55;0.85;;;16.40;99.90;;;;;;5051555;28;20492;-62
2023/07/31 01:32:29;;;;;;;0.20;0.20;;;16.90;99.90;;;;;;5051740;28;20131;-62
2023/07/31 01:34:57;;;;;;;0.10;0.10;;;16.50;99.90;;;;;;5051689;28;20563;-62
2023/07/31 01:37:29;;;;;;;0.10;0.10;;;16.30;99.90;;;;;;5051519;28;20044;-62
2023/07/31 01:39:54;;;;;;;0.10;0.10;;;17.20;99.90;;;;;;5051827;28;20048;-61
2023/07/31 01:42:20;;;;;;;0.60;0.60;;;16.20;99.90;;;;;;5050383;28;20049;-61
2023/07/31 01:44:45;;;;;;;;;;;16.20;99.90;;;;;;5051690;28;20137;-61
2023/07/31 01:47:11;;;;;;;0.10;0.10;;;15.80;99.90;;;;;;5051710;28;19960;-61
2023/07/31 01:49:36;;;;;;;;;;;16.50;99.90;;;;;;5051993;28;20447;-61
2023/07/31 01:52:02;;;;;;;0.15;0.15;;;16.20;99.90;;;;;;5050117;28;19984;-62
2023/07/31 01:54:28;;;;;;;;;;;16.10;99.90;;;;;;5051919;28;20045;-61
2023/07/31 01:56:54;;;;;;;1.95;0.30;;;16.10;99.90;;;;;;5051516;28;19928;-61
2023/07/31 01:59:19;;;;;;;;;;;16.90;99.90;;;;;;5051880;28;20377;-60
2023/07/31 02:01:45;;;;;;;0.17;0.17;;;16.60;99.90;;;;;;5049890;28;19932;-61
2023/07/31 02:04:10;;;;;;;;;;;16.00;99.90;;;;;;5052026;28;20060;-62
2023/07/31 02:06:36;;;;;;;0.22;0.22;;;15.60;99.90;;;;;;5051547;28;20098;-60
2023/07/31 02:09:03;;;;;;;0.17;0.17;;;16.40;99.90;;;;;;5051438;28;20056;-60
2023/07/31 02:11:29;;;;;;;0.30;0.30;;;16.30;99.90;;;;;;5050434;28;20128;-60
2023/07/31 02:13:54;;;;;;;;;;;16.60;99.90;;;;;;5052117;28;20254;-60
2023/07/31 02:16:20;;;;;;;0.63;0.63;;;17.00;99.90;;;;;;5051540;28;19920;-60
2023/07/31 02:18:45;;;;;;;;;;;16.80;99.90;;;;;;5051835;28;20049;-60
2023/07/31 02:21:11;;;;;;;0.20;0.20;;;17.00;99.90;;;;;;5051455;28;19931;-60
2023/07/31 02:23:37;;;;;;;;;;;16.70;99.90;;;;;;5051598;28;20401;-60
2023/07/31 02:26:02;;;;;;;0.10;0.10;;;16.50;99.90;;;;;;5051277;28;19925;-60
2023/07/31 02:28:28;;;;;;;;;;;16.50;99.90;;;;;;5051694;28;20103;-61
2023/07/31 02:30:54;;;;;;;1.48;0.38;;;16.90;99.90;;;;;;5051131;28;19990;-61
2023/07/31 02:33:19;;;;;;;;;;;15.70;99.90;;;;;;5050362;28;20385;-61
2023/07/31 02:35:45;;;;;;;1.08;0.57;;;15.80;99.90;;;;;;5051139;28;20010;-60
2023/07/31 02:38:11;;;;;;;;;;;16.60;99.90;;;;;;5051535;28;20045;-60
2023/07/31 02:40:36;;;;;;;8.07;0.47;;;15.90;99.90;;;;;;5051124;28;19921;-61
2023/07/31 02:43:02;;;;;;;;;;;15.60;99.90;;;;;;5050138;28;20045;-60
2023/07/31 02:45:28;;;;;;;0.38;0.22;;;15.60;99.90;;;;;;5051053;28;19943;-62
2023/07/31 02:47:53;;;;;;;;;;;16.20;99.90;;;;;;5050498;28;20095;-62
2023/07/31 02:50:19;;;;;;;0.15;0.15;;;16.40;99.90;;;;;;5055001;28;19925;-62
2023/07/31 02:52:44;;;;;;;;;;;16.00;99.90;;;;;;5055477;28;20041;-62
2023/07/31 02:55:10;;;;;;;0.10;0.10;;;16.40;99.90;;;;;;5054782;28;19967;-61
2023/07/31 02:57:36;;;;;;;;;;;16.90;99.90;;;;;;5055203;28;20053;-60
2023/07/31 03:00:05;;;;;;;4.38;0.95;;;16.40;99.90;;;;;;5053429;28;19980;-61
2023/07/31 03:02:31;;;;;;;0.22;0.22;;;16.30;99.90;;;;;;5054466;28;20397;-60
2023/07/31 03:04:56;;;;;;;;;;;15.40;99.90;;;;;;5055003;28;20053;-61
2023/07/31 03:07:22;;;;;;;0.40;0.40;;;18.40;99.90;;;;;;5054179;28;19975;-61
2023/07/31 03:09:48;;;;;;;;;;;16.10;99.90;;;;;;5054903;28;20095;-61
2023/07/31 03:12:13;;;;;;;0.20;0.20;;;16.50;99.90;;;;;;5054421;28;19925;-64
2023/07/31 03:14:39;;;;;;;;;;;16.30;99.90;;;;;;5054823;28;20140;-62
2023/07/31 03:17:05;;;;;;;0.20;0.20;;;16.80;99.90;;;;;;5054320;28;19978;-63
2023/07/31 03:19:31;;;;;;;;;;;15.90;99.90;;;;;;5054709;28;20084;-62
2023/07/31 03:21:57;;;;;;;0.00;0.00;;;15.30;99.90;;;;;;5053027;28;19974;-61
2023/07/31 03:24:23;;;;;;;;;;;16.00;99.90;;;;;;5054578;28;20045;-61
2023/07/31 03:26:48;;;;;;;1.27;0.28;;;16.00;99.90;;;;;;5052962;28;19931;-61
2023/07/31 03:29:14;;;;;;;;;;;15.20;99.90;;;;;;5053535;28;20094;-62
2023/07/31 03:31:39;;;;;;;0.25;0.25;;;16.40;99.90;;;;;;5054299;28;19921;-61
2023/07/31 03:34:05;;;;;;;;;;;15.50;99.90;;;;;;5054488;28;20061;-61
2023/07/31 03:36:31;;;;;;;0.15;0.15;;;15.50;99.90;;;;;;5054330;28;19925;-62
2023/07/31 03:38:57;;;;;;;0.35;0.35;;;16.40;99.90;;;;;;5054038;28;20124;-61
2023/07/31 03:41:22;;;;;;;;;;;15.40;99.90;;;;;;5036842;28;20051;-61
2023/07/31 03:43:55;;;;;;;0.20;0.20;;;15.50;99.90;;;;;;5054236;28;19995;-61
2023/07/31 03:46:22;;;;;;;0.30;0.30;;;16.40;99.90;;;;;;5054022;28;20487;-65
2023/07/31 03:48:48;;;;;;;0.15;0.15;;;15.60;99.90;;;;;;5053801;28;20049;-62
2023/07/31 03:51:14;;;;;;;;;;;16.10;99.90;;;;;;5054138;28;20500;-62
2023/07/31 03:53:39;;;;;;;0.10;0.10;;;15.90;99.90;;;;;;5053605;28;19925;-62
2023/07/31 03:56:05;;;;;;;;;;;16.50;99.90;;;;;;5054002;28;20092;-61
2023/07/31 03:58:31;;;;;;;0.22;0.22;;;16.90;99.90;;;;;;5053530;28;19974;-61
2023/07/31 04:00:56;;;;;;;;;;;16.40;99.90;;;;;;5053809;28;20139;-61
2023/07/31 04:03:22;;;;;;;0.20;0.20;;;16.50;99.90;;;;;;5053331;28;19928;-63
2023/07/31 04:05:47;;;;;;;;;;;15.90;99.90;;;;;;5053803;28;20048;-63
2023/07/31 04:08:13;;;;;;;0.10;0.10;;;16.30;99.90;;;;;;5053385;28;19927;-62
2023/07/31 04:10:38;;;;;;;;;;;15.90;99.90;;;;;;5054057;28;20075;-61
2023/07/31 04:13:04;;;;;;;0.10;0.10;;;16.40;99.90;;;;;;5052003;28;19924;-62
2023/07/31 04:15:30;;;;;;;;;;;16.70;99.90;;;;;;5053619;28;20141;-61
2023/07/31 04:17:55;;;;;;;0.43;0.43;;;16.50;99.90;;;;;;5053084;28;19925;-61
2023/07/31 04:20:21;;;;;;;;;;;15.00;99.90;;;;;;5053504;28;20546;-60
2023/07/31 04:22:47;;;;;;;0.20;0.20;;;16.20;99.90;;;;;;5053025;28;19974;-60
2023/07/31 04:25:12;;;;;;;;;;;15.60;99.90;;;;;;5053371;28;20176;-60
2023/07/31 04:27:40;;;;;;;0.10;0.10;;;15.20;99.90;;;;;;5052957;28;19932;-61
2023/07/31 04:30:06;;;;;;;0.10;0.10;;;15.20;99.90;;;;;;5052873;28;20052;-61
2023/07/31 04:32:32;;;;;;;0.63;0.63;;;16.60;99.90;;;;;;5052865;28;20041;-61
2023/07/31 04:34:57;;;;;;;;;;;16.20;99.90;;;;;;5053235;28;20366;-60
2023/07/31 04:37:23;;;;;;;0.15;0.15;;;16.40;99.90;;;;;;5052994;28;20074;-62
2023/07/31 04:39:48;;;;;;;;;;;16.30;99.90;;;;;;5053119;28;20046;-60
2023/07/31 04:42:14;;;;;;;0.15;0.15;;;15.90;99.90;;;;;;5052728;28;19931;-62
2023/07/31 04:44:40;;;;;;;;;;;16.00;99.90;;;;;;5053168;28;20114;-61
2023/07/31 04:47:05;;;;;;;4.20;0.52;;;16.30;99.90;;;;;;5052712;28;20288;-61
2023/07/31 04:49:31;;;;;;;;;;;15.40;99.90;;;;;;5053147;28;20065;-61
2023/07/31 04:51:57;;;;;;;0.10;0.10;;;16.30;99.90;;;;;;5052495;28;19927;-61
2023/07/31 04:54:23;;;;;;;;;;;15.10;99.90;;;;;;5052853;28;20045;-61
2023/07/31 04:56:48;;;;;;;0.10;0.10;;;16.30;99.90;;;;;;5052416;28;19979;-60
2023/07/31 04:59:14;;;;;;;;;;;16.30;99.90;;;;;;5052723;28;20485;-60
2023/07/31 05:01:39;;;;;;;0.52;0.52;;;16.40;99.90;;;;;;5051990;28;20337;-60
2023/07/31 05:04:05;;;;;;;;;;;15.10;99.90;;;;;;5052713;28;20064;-60
2023/07/31 05:06:31;;;;;;;0.10;0.10;;;15.90;99.90;;;;;;5052244;28;20265;-61
2023/07/31 05:08:56;;;;;;;;;;;15.30;99.90;;;;;;5052591;28;20044;-61
2023/07/31 05:11:22;;;;;;;0.10;0.10;;;16.30;99.90;;;;;;5050248;28;19971;-60
2023/07/31 05:13:48;;;;;;;;;;;16.00;99.90;;;;;;5052530;28;20045;-61
2023/07/31 05:16:13;;;;;;;0.30;0.30;;;14.90;99.90;;;;;;5051728;28;19924;-60
2023/07/31 05:18:39;;;;;;;;;;;13.90;99.90;;;;;;5052388;28;20049;-60
2023/07/31 05:21:04;;;;;;;0.20;0.20;;;16.60;99.90;;;;;;5051983;28;20392;-62
2023/07/31 05:23:32;;;;;;;;;;;15.10;99.90;;;;;;5052160;28;20393;-64
2023/07/31 05:26:09;;;;;;;0.10;0.10;;;15.50;99.90;;;;;;5051863;28;19926;-61
2023/07/31 05:28:35;;;;;;;0.13;0.13;;;16.60;99.90;;;;;;5051881;28;20159;-63
2023/07/31 05:31:02;;;;;;;0.20;0.20;;;15.20;99.90;;;;;;5051746;28;20041;-60
2023/07/31 05:33:28;;;;;;;0.20;0.20;;;16.20;99.90;;;;;;5051694;28;20041;-61
2023/07/31 05:35:54;;;;;;;;;;;16.30;99.90;;;;;;5052206;28;20181;-61
2023/07/31 05:38:19;;;;;;;0.10;0.10;;;15.90;99.90;;;;;;5051757;28;19920;-60
2023/07/31 05:40:45;;;;;;;;;;;16.20;99.90;;;;;;5050900;28;20049;-65
2023/07/31 05:43:11;;;;;;;0.20;0.20;;;16.60;99.90;;;;;;5050645;28;19931;-61
2023/07/31 05:45:36;;;;;;;;;;;15.60;99.90;;;;;;5052404;28;20098;-61
2023/07/31 05:48:03;;;;;;;0.20;0.20;;;15.90;99.90;;;;;;5051804;28;19920;-61
2023/07/31 05:50:29;;;;;;;0.43;0.43;;;15.50;99.90;;;;;;5051360;28;20536;-61
2023/07/31 05:52:55;;;;;;;0.20;0.20;;;16.70;99.90;;;;;;5051500;28;20120;-61
2023/07/31 05:55:21;;;;;;;;;;;15.50;99.90;;;;;;5050649;28;20537;-63
2023/07/31 05:57:46;;;;;;;0.10;0.10;;;16.70;99.90;;;;;;5051468;28;19932;-62
2023/07/31 06:00:13;;;;;;;;;;;15.00;99.90;;;;;;5051843;28;20075;-61
2023/07/31 06:02:38;;;;;;;0.20;0.20;;;16.60;99.90;;;;;;5051021;28;19971;-61
2023/07/31 06:05:05;;;;;;;;;;;15.50;99.90;;;;;;5050138;28;20111;-62
2023/07/31 06:07:31;;;;;;;0.10;0.10;;;16.30;99.90;;;;;;5049833;28;19963;-61
2023/07/31 06:10:02;;;;;;;0.22;0.22;;;15.70;99.90;;;;;;5051282;28;20401;-61
2023/07/31 06:12:28;;;;;;;0.85;0.85;;;16.70;99.90;;;;;;5051335;28;20103;-60
2023/07/31 06:14:54;;;;;;;;;;;15.80;99.90;;;;;;5051709;28;20053;-61
2023/07/31 06:17:20;;;;;;;0.10;0.10;;;15.80;99.90;;;;;;5051205;28;19928;-63
2023/07/31 06:19:45;;;;;;;;;;;16.50;99.90;;;;;;5051661;28;20092;-61
2023/07/31 06:22:11;;;;;;;0.10;0.10;;;15.70;99.90;;;;;;5049924;28;19947;-63
2023/07/31 06:24:36;;;;;;;;;;;16.60;99.90;;;;;;5051060;28;20049;-62
2023/07/31 06:27:03;;;;;;;0.25;0.25;;;15.60;99.90;;;;;;5043314;28;20289;-63
2023/07/31 06:29:29;;;;;;;0.10;0.10;;;17.00;99.90;;;;;;5035215;28;20085;-62
2023/07/31 06:31:55;;;;;;;;;;;17.00;99.90;;;;;;5035657;28;20105;-61
2023/07/31 06:34:21;;;;;;;0.40;0.40;;;15.80;99.90;;;;;;5052174;28;20007;-62
2023/07/31 06:36:46;;;;;;;;;;;16.00;99.90;;;;;;5055456;28;20098;-61
2023/07/31 06:39:12;;;;;;;2.00;1.25;;;16.30;99.90;;;;;;5053735;28;19925;-61
2023/07/31 06:41:38;;;;;;;;;;;17.50;99.90;;;;;;5055331;28;20135;-62
2023/07/31 06:44:03;;;;;;;0.10;0.10;;;16.70;99.90;;;;;;5055289;28;19928;-61
2023/07/31 06:46:29;;;;;;;;;;;16.00;99.90;;;;;;5055456;28;20471;-60
2023/07/31 06:48:55;;;;;;;0.13;0.13;;;15.80;99.90;;;;;;5055128;28;20376;-61
2023/07/31 06:51:20;;;;;;;;;;;15.70;99.90;;;;;;5055162;28;20048;-61
2023/07/31 06:53:46;;;;;;;0.77;0.38;;;16.30;99.90;;;;;;5054770;28;19925;-61
2023/07/31 06:56:12;;;;;;;0.30;0.30;;;16.60;99.90;;;;;;5054693;28;20053;-62
2023/07/31 06:58:38;;;;;;;;;;;16.60;99.90;;;;;;5055145;28;20056;-61
2023/07/31 07:01:03;;;;;;;1.02;0.55;;;16.10;99.90;;;;;;5054527;28;19947;-61
2023/07/31 07:03:29;;;;;;;;;;;16.60;99.90;;;;;;5054847;28;20148;-61
2023/07/31 07:05:55;;;;;;;1.65;0.45;;;17.40;99.90;;;;;;5054522;28;19925;-59
2023/07/31 07:08:20;;;;;;;;;;;16.40;99.90;;;;;;5054865;28;20056;-60
2023/07/31 07:10:47;;;;;;;0.57;0.57;;;16.30;99.90;;;;;;5054383;28;19970;-60
2023/07/31 07:13:13;;;;;;;0.47;0.47;;;16.00;99.90;;;;;;5054305;28;20056;-60
2023/07/31 07:15:39;;;;;;;0.22;0.22;;;16.60;99.90;;;;;;5054353;28;20059;-61
2023/07/31 07:18:04;;;;;;;;;;;16.20;99.90;;;;;;5054755;28;20049;-60
2023/07/31 07:20:30;;;;;;;0.10;0.10;;;17.70;99.90;;;;;;5054246;28;19921;-60
2023/07/31 07:22:56;;;;;;;;;;;17.40;99.90;;;;;;5054572;28;20149;-60
2023/07/31 07:25:21;;;;;;;0.45;0.38;;;17.40;99.90;;;;;;5054194;28;20005;-60
2023/07/31 07:27:47;;;;;;;;;;;16.30;99.90;;;;;;5054581;28;20045;-59
2023/07/31 07:30:14;;;;;;;0.55;0.40;;;16.20;99.90;;;;;;5054035;28;19921;-60
2023/07/31 07:32:39;;;;;;;0.20;0.20;;;16.10;99.90;;;;;;5054152;28;20057;-62
2023/07/31 07:35:06;;;;;;;;;;;17.50;99.90;;;;;;5053912;28;20045;-61
2023/07/31 07:37:31;;;;;;;0.47;0.47;;;16.20;99.90;;;;;;5053938;28;19921;-60
2023/07/31 07:39:57;;;;;;;0.10;0.10;;;17.30;99.90;;;;;;5053906;28;20134;-61
2023/07/31 07:42:23;;;;;;;;;;;17.60;99.90;;;;;;5054211;28;20052;-61
2023/07/31 07:44:48;;;;;;;1.65;0.50;;;17.40;99.90;;;;;;5053700;28;20238;-61
2023/07/31 07:47:14;;;;;;;;;;;16.70;99.90;;;;;;5054167;28;20468;-60
2023/07/31 07:49:40;;;;;;;0.30;0.30;;;18.20;99.90;;;;;;5053727;28;19970;-63
2023/07/31 07:52:06;;;;;;;;;;;16.70;99.90;;;;;;5036415;28;20053;-61
2023/07/31 07:54:32;;;;;;;0.25;0.25;;;17.10;99.90;;;;;;5053673;28;19924;-61
2023/07/31 07:56:57;;;;;;;;;;;17.50;99.90;;;;;;5052777;28;20140;-61
2023/07/31 07:59:24;;;;;;;0.47;0.17;;;17.10;99.90;;;;;;5046824;28;19921;-62
2023/07/31 08:01:49;;;;;;;1.00;0.20;;;17.30;99.90;;;;;;5052434;28;20045;-63
2023/07/31 08:04:15;;;;;;;0.28;0.28;;;16.10;99.90;;;;;;5053286;28;20164;-62
2023/07/31 08:06:41;;;;;;;;;;;17.00;99.90;;;;;;5053843;28;20064;-64
2023/07/31 08:09:07;;;;;;;0.20;0.20;;;16.60;99.90;;;;;;5053193;28;19972;-64
2023/07/31 08:11:33;;;;;;;0.15;0.15;;;16.70;99.90;;;;;;5061479;28;20044;-65
2023/07/31 08:13:58;;;;;;;0.20;0.20;;;18.70;99.90;;;;;;5072499;28;20051;-64
2023/07/31 08:16:24;;;;;;;;;;;17.00;99.90;;;;;;5073042;28;20084;-63
2023/07/31 08:18:49;;;;;;;0.20;0.17;;;17.20;99.90;;;;;;5071582;28;19932;-63
2023/07/31 08:21:15;;;;;;;0.30;0.30;;;18.40;99.90;;;;;;5072457;28;20217;-63
2023/07/31 08:23:41;;;;;;;;;;;18.90;99.90;;;;;;5073110;28;20075;-64
2023/07/31 08:26:06;;;;;;;0.38;0.38;;;17.70;99.90;;;;;;5061552;28;19925;-64
2023/07/31 08:28:32;;;;;;;0.10;0.10;;;18.60;99.90;;;;;;5041130;28;20076;-64
2023/07/31 08:30:58;;;;;;;;;;;17.30;99.90;;;;;;5041419;28;20057;-61
2023/07/31 08:33:23;;;;;;;0.35;0.30;;;18.40;99.90;;;;;;5045721;28;19927;-62
2023/07/31 08:35:49;;;;;;;;;;;18.30;99.90;;;;;;5052955;28;20136;-61
2023/07/31 08:38:15;;;;;;;0.20;0.20;;;18.40;99.90;;;;;;5051201;28;19920;-62
2023/07/31 08:40:40;;;;;;;;;;;17.50;99.90;;;;;;5036730;28;20079;-72
2023/07/31 08:43:09;;;;;;;0.13;0.13;;;18.60;99.90;;;;;;5044352;28;19943;-63
2023/07/31 08:45:35;;;;;;;0.00;0.00;;;19.30;99.90;;;;;;5045743;28;20084;-62
2023/07/31 08:48:01;;;;;;;0.10;0.10;;;17.50;99.90;;;;;;5039505;28;20094;-62
2023/07/31 08:50:27;;;;;;;0.10;0.10;;;17.30;99.90;;;;;;5041160;28;20486;-64
2023/07/31 08:52:53;;;;;;;0.17;0.17;;;18.30;99.90;;;;;;5044736;28;20055;-63
2023/07/31 08:55:24;;;;;;;0.98;0.25;;;17.30;99.90;;;;;;5045322;28;20048;-63
2023/07/31 08:57:52;;;;;;;0.00;0.00;;;18.40;99.90;;;;;;5051729;28;20049;-62
2023/07/31 09:00:21;;;;;;;0.05;0.05;;;19.10;99.90;;;;;;5052160;28;20481;-62
2023/07/31 09:02:56;;;;;;;0.00;0.00;;;18.00;99.90;;;;;;5052040;28;20075;-62
2023/07/31 09:05:23;;;;;;;0.10;0.10;;;17.80;99.90;;;;;;5051675;28;20110;-62
2023/07/31 09:07:51;;;;;;;0.10;0.10;;;18.40;99.90;;;;;;5051130;28;20049;-63
2023/07/31 09:10:16;;;;;;;0.00;0.00;;;20.00;99.90;;;;;;5052277;28;20037;-62
2023/07/31 09:12:43;;;;;;;0.00;0.00;;;19.80;99.90;;;;;;5051430;28;20091;-63
2023/07/31 09:15:09;;;;;;;0.00;0.00;;;18.60;99.90;;;;;;5051640;28;20370;-63
2023/07/31 09:17:36;;;;;;;0.10;0.10;;;18.40;99.90;;;;;;5051867;28;20074;-65
2023/07/31 09:20:22;;;;;;;0.22;0.22;;;18.40;99.90;;;;;;5050087;28;20396;-61
2023/07/31 09:22:49;;;;;;;0.10;0.10;;;17.50;99.90;;;;;;5047451;28;20420;-61
2023/07/31 09:25:23;;;;;;;0.08;0.08;;;19.00;99.90;;;;;;5048163;28;20071;-61
2023/07/31 09:27:55;;;;;;;0.00;0.00;;;18.80;99.90;;;;;;5068500;28;20403;-63
2023/07/31 09:30:21;;;;;;;0.00;0.00;;;18.70;99.90;;;;;;5071661;28;20060;-64
2023/07/31 09:32:49;;;;;;;0.10;0.10;;;17.80;99.90;;;;;;5071232;28;20446;-69
2023/07/31 09:35:22;;;;;;;0.10;0.10;;;18.80;99.90;;;;;;5071144;28;20052;-62
2023/07/31 09:37:50;;;;;;;0.40;0.40;;;17.60;99.90;;;;;;5071224;28;20165;-63
2023/07/31 09:40:29;;;;;;;0.82;0.40;;;18.60;99.90;;;;;;5070786;28;20066;-64
2023/07/31 09:43:12;;;;;;;0.30;0.30;;;17.70;99.90;;;;;;5070842;28;20083;-62
2023/07/31 09:45:42;;;;;;;0.35;0.35;;;18.10;99.90;;;;;;5061128;28;20041;-62
2023/07/31 09:48:10;;;;;;;0.13;0.13;;;18.40;99.90;;;;;;5044853;28;20398;-62
2023/07/31 09:50:39;;;;;;;0.30;0.30;;;18.20;99.90;;;;;;5049930;28;20132;-62
2023/07/31 09:53:08;;;;;;;0.10;0.10;;;19.30;99.90;;;;;;5045270;28;20049;-65
2023/07/31 09:55:35;;;;;;;0.20;0.20;;;19.40;99.90;;;;;;5060769;28;20041;-65
2023/07/31 09:58:09;;;;;;;0.20;0.20;;;18.90;99.90;;;;;;5050998;28;20147;-64
2023/07/31 10:00:35;;;;;;;0.90;0.55;;;17.30;99.90;;;;;;5051205;28;20049;-64
2023/07/31 10:03:04;;;;;;;0.65;0.17;;;17.70;99.90;;;;;;5050568;28;20140;-64
2023/07/31 10:05:45;;;;;;;0.20;0.20;;;18.30;99.90;;;;;;5050671;28;20045;-62
2023/07/31 10:08:13;;;;;;;0.20;0.20;;;17.50;99.90;;;;;;5049937;28;20493;-62
2023/07/31 10:10:42;;;;;;;0.10;0.10;;;18.00;99.90;;;;;;5051519;28;20049;-61
2023/07/31 10:13:09;;;;;;;0.95;0.95;;;18.30;99.90;;;;;;5051487;28;20432;-64
2023/07/31 10:15:35;;;;;;;0.30;0.20;;;18.00;99.90;;;;;;5051688;28;20075;-62
2023/07/31 10:18:02;;;;;;;0.20;0.20;;;18.10;99.90;;;;;;5051387;28;20092;-62
2023/07/31 10:20:28;;;;;;;0.10;0.10;;;18.60;99.90;;;;;;5051323;28;20083;-62
2023/07/31 10:22:56;;;;;;;3.53;0.63;;;18.70;99.90;;;;;;5051242;28;20486;-62
2023/07/31 10:25:23;;;;;;;0.20;0.20;;;19.00;99.90;;;;;;5051305;28;20500;-61
2023/07/31 10:27:50;;;;;;;0.20;0.20;;;19.30;99.90;;;;;;5051205;28;20111;-64
2023/07/31 10:30:18;;;;;;;0.85;0.63;;;18.30;99.90;;;;;;5051227;28;20049;-65
2023/07/31 10:32:45;;;;;;;0.10;0.10;;;19.30;99.90;;;;;;5051258;28;20044;-68
2023/07/31 10:35:12;;;;;;;0.10;0.10;;;18.00;99.90;;;;;;5051623;28;20052;-62
2023/07/31 10:37:42;;;;;;;0.20;0.20;;;18.70;99.90;;;;;;5051335;28;20060;-62
2023/07/31 10:40:22;;;;;;;0.10;0.10;;;18.60;99.90;;;;;;5051163;28;20048;-61
2023/07/31 10:42:48;;;;;;;0.05;0.05;;;18.90;99.90;;;;;;5051092;28;20045;-62
2023/07/31 10:45:32;;;;;;;1.85;0.98;;;17.90;99.90;;;;;;5051114;28;20045;-63
2023/07/31 10:48:03;;;;;;;0.28;0.28;;;18.70;99.90;;;;;;5051088;28;20099;-62
2023/07/31 10:50:32;;;;;;;0.38;0.38;;;18.90;99.90;;;;;;5051066;28;20045;-62
2023/07/31 10:53:00;;;;;;;0.20;0.20;;;19.30;99.90;;;;;;5050977;28;20080;-62
2023/07/31 10:55:29;;;;;;;0.32;0.32;;;18.80;99.90;;;;;;5050972;28;20056;-62
2023/07/31 10:57:56;;;;;;;0.10;0.10;;;19.60;99.90;;;;;;5049669;28;20489;-64
2023/07/31 11:00:27;;;;;;;0.43;0.32;;;19.90;99.90;;;;;;5050637;28;20509;-64
2023/07/31 11:03:02;;;;;;;0.10;0.10;;;19.80;99.90;;;;;;5050841;28;20068;-63
2023/07/31 11:05:55;;;;;;;0.00;0.00;;;19.70;99.90;;;;;;5050908;28;20195;-63
2023/07/31 11:08:25;;;;;;;0.15;0.15;;;20.30;99.90;;;;;;5048074;28;20053;-63
2023/07/31 11:11:03;;;;;;;0.20;0.15;;;19.70;99.90;;;;;;5053646;28;20049;-66
2023/07/31 11:13:30;;;;;;;0.15;0.15;;;20.00;99.90;;;;;;5051354;28;20041;-63
2023/07/31 11:15:56;;;;;;;0.10;0.10;;;19.90;99.90;;;;;;5036168;28;20057;-63
2023/07/31 11:18:22;;;;;;;0.25;0.25;;;20.30;99.90;;;;;;5033094;28;20497;-64
2023/07/31 11:20:48;;;;;;;0.20;0.20;;;20.50;99.90;;;;;;5034473;28;20076;-63
2023/07/31 11:23:16;;;;;;;0.10;0.10;;;20.30;99.90;;;;;;5034329;28;20501;-62
2023/07/31 11:25:43;;;;;;;0.35;0.30;;;20.50;99.90;;;;;;5033334;28;20049;-65
2023/07/31 11:28:11;;;;;;;0.10;0.10;;;20.50;99.90;;;;;;5034397;28;20095;-63
2023/07/31 11:30:38;;;;;;;0.10;0.10;;;20.60;99.90;;;;;;5034264;28;20481;-62
2023/07/31 11:33:05;;;;;;;0.40;0.20;;;20.80;99.90;;;;;;5033297;28;20053;-62
2023/07/31 11:35:41;;;;;;;0.10;0.10;;;20.80;99.90;;;;;;5034224;28;20063;-63
2023/07/31 11:38:08;;;;;;;;;;;20.60;99.90;;;;;;5034609;28;20045;-62
2023/07/31 11:40:44;;;;;;;0.20;0.20;;;21.00;99.90;;;;;;5033112;28;19968;-63
2023/07/31 11:43:13;;;;;;;0.10;0.10;;;20.70;99.90;;;;;;5033976;28;20042;-62
2023/07/31 11:45:40;;;;;;;0.43;0.40;;;20.90;99.90;;;;;;5034066;28;20069;-62
2023/07/31 11:48:06;;;;;;;0.13;0.13;;;20.60;99.90;;;;;;5033997;28;20045;-64
2023/07/31 11:50:35;;;;;;;0.20;0.20;;;20.80;99.90;;;;;;5033883;28;20049;-62
2023/07/31 11:53:07;;;;;;;0.90;0.40;;;20.70;99.90;;;;;;5033932;28;20045;-63
2023/07/31 11:55:33;;;;;;;0.10;0.10;;;20.80;99.90;;;;;;5032723;28;20053;-62
2023/07/31 11:58:00;;;;;;;0.10;0.10;;;21.40;99.90;;;;;;5033802;28;20049;-64
2023/07/31 12:00:27;;;;;;;0.15;0.10;;;21.40;99.90;;;;;;5033730;28;20132;-65
2023/07/31 12:02:53;;;;;;;0.77;0.20;;;21.00;99.90;;;;;;5032028;28;20088;-63
2023/07/31 12:05:19;;;;;;;0.22;0.22;;;20.70;99.90;;;;;;5033817;28;20049;-63
2023/07/31 12:07:55;;;;;;;1.35;1.08;;;20.70;99.90;;;;;;5033733;28;20111;-67
2023/07/31 12:10:31;;;;;;;0.17;0.17;;;20.60;99.90;;;;;;5032341;28;20405;-65
2023/07/31 12:13:01;;;;;;;0.10;0.10;;;20.80;99.90;;;;;;5033748;28;20405;-63
2023/07/31 12:15:37;;;;;;;0.00;0.00;;;21.30;99.90;;;;;;5033889;28;20128;-63
2023/07/31 12:18:11;;;;;;;0.20;0.20;;;21.00;99.90;;;;;;5033797;28;20050;-63
2023/07/31 12:20:44;;;;;;;0.13;0.13;;;20.50;99.90;;;;;;5033633;28;20129;-61
2023/07/31 12:23:30;;;;;;;4.78;0.28;;;20.40;99.90;;;;;;5033303;28;20051;-62
2023/07/31 12:26:13;;;;;;;0.20;0.20;;;19.90;99.90;;;;;;5033231;28;20049;-63
2023/07/31 12:28:44;;;;;;;0.10;0.10;;;19.40;99.90;;;;;;5033243;28;20041;-61
2023/07/31 12:31:12;;;;;;;0.10;0.10;;;19.20;99.90;;;;;;5033084;28;20045;-62
2023/07/31 12:33:39;;;;;;;0.50;0.50;;;19.30;99.90;;;;;;5032912;28;20444;-62
2023/07/31 12:36:14;;;;;;;0.00;0.00;;;19.20;99.90;;;;;;5033257;28;20053;-62
2023/07/31 12:38:41;;;;;;;0.00;0.00;;;18.80;99.90;;;;;;5031804;28;20386;-62
2023/07/31 12:41:07;;;;;;;0.05;0.05;;;19.30;99.90;;;;;;5032997;28;20059;-62
2023/07/31 12:43:33;;;;;;;0.35;0.35;;;19.80;99.90;;;;;;5032734;28;20124;-62
2023/07/31 12:45:59;;;;;;;0.00;0.00;;;19.10;99.90;;;;;;5032345;28;20045;-62
2023/07/31 12:48:25;;;;;;;0.40;0.40;;;19.60;99.90;;;;;;5049248;28;20068;-67
2023/07/31 12:50:51;;;;;;;0.10;0.10;;;19.90;99.90;;;;;;5049857;28;20103;-66
2023/07/31 12:53:17;;;;;;;0.10;0.10;;;19.80;99.90;;;;;;5044781;28;20038;-62
2023/07/31 12:55:42;;;;;;;0.30;0.30;;;19.40;99.90;;;;;;5041829;28;20049;-63
2023/07/31 12:58:08;;;;;;;0.10;0.10;;;19.50;99.90;;;;;;5036439;28;20037;-64
2023/07/31 13:00:34;;;;;;;1.52;1.13;;;19.70;99.90;;;;;;5060560;28;20044;-63
2023/07/31 13:03:00;;;;;;;0.55;0.20;;;19.60;99.90;;;;;;5071405;28;20086;-68
2023/07/31 13:05:29;;;;;;;0.65;0.10;;;19.50;99.90;;;;;;5071631;28;20479;-63
2023/07/31 13:07:55;;;;;;;0.10;0.10;;;19.50;99.90;;;;;;5070533;28;20186;-64